Polar Bear — ZMA2072 — position and weather

sailwx.info

Track history (hours):
 
Tides and Currents Weather Stations Pressure Air Temp Water Temp Dewpoint Dewpoint Depression Visibility Wind Speed Wind Dir Waves Ship Positions

Polar Bear

Last reported at 2016-Aug-04 20:10 UTC. Time now 2016-Aug-28 12:13 UTC.
Position N 49°10' W 123°56'.
Warning: this ship's position is 23 days out of date.

Length 28 m; draft 2.3 m.

Type: Pleasure craft. MMSI: 512172000.

Date/timePositionNaut miles runAvg speedWind from/ knotsBaromVisibWave heightAir tempDewpointWater temp
2016-Aug-04 20:10N 49°10' W 123°56'4 6.5
2016-Aug-04 19:33N 49°12' W 123°51'10 9.7
2016-Aug-04 18:33N 49°15' W 123°36'9 9.5
2016-Aug-04 17:34N 49°16' W 123°22'9 9.1
2016-Aug-04 16:33N 49°16' W 123°08'0 0.0
2016-Aug-04 15:32N 49°16' W 123°08'0 0.0
2016-Aug-04 14:32N 49°16' W 123°08'0 0.0
2016-Aug-04 13:32N 49°16' W 123°08'0 0.0
2016-Aug-04 12:32N 49°16' W 123°08'0 0.0
2016-Aug-04 11:32N 49°16' W 123°08'0 0.0
2016-Aug-04 10:32N 49°16' W 123°08'0 0.0
2016-Aug-04 09:32N 49°16' W 123°08'0 0.0
2016-Aug-04 08:29N 49°16' W 123°08'0 0.0
2016-Aug-04 07:32N 49°16' W 123°08'0 0.0
2016-Aug-04 06:32N 49°16' W 123°08'8 4.2
2016-Aug-04 04:33N 49°19' W 122°56'9 7.0
2016-Aug-04 03:17N 49°28' W 122°53'1 0.7
2016-Aug-04 01:16N 49°26' W 122°52'7 9.7
2016-Aug-04 00:33N 49°20' W 122°55'9 9.2
2016-Aug-03 23:33N 49°19' W 123°10'3 2.5
2016-Aug-03 22:31N 49°16' W 123°08'0 0.0
2016-Aug-03 21:28N 49°16' W 123°08'0 0.0
2016-Aug-03 20:28N 49°16' W 123°08'0 0.0
2016-Aug-03 19:31N 49°16' W 123°08'0 0.0
2016-Aug-03 10:25N 49°16' W 123°08'0 0.0
2016-Aug-02 17:16N 49°16' W 123°08'0 0.0
2016-Aug-02 16:31N 49°16' W 123°08'0 0.0
2016-Aug-02 15:31N 49°16' W 123°08'0 0.0
2016-Aug-02 14:31N 49°16' W 123°08'0 0.0
2016-Aug-02 13:31N 49°16' W 123°08'0 0.0
2016-Aug-02 12:25N 49°16' W 123°08'0 0.0
2016-Aug-02 11:31N 49°16' W 123°08'0 0.0
2016-Aug-02 10:31N 49°16' W 123°08'0 0.0
2016-Aug-02 09:31N 49°16' W 123°08'0 0.0
2016-Aug-02 08:31N 49°16' W 123°08'0 0.0
2016-Aug-02 07:31N 49°16' W 123°08'0 0.0
2016-Aug-02 06:25N 49°16' W 123°08'0 0.0
2016-Aug-02 04:31N 49°16' W 123°08'0 0.0
2016-Aug-02 03:31N 49°16' W 123°08'0 0.0
2016-Aug-02 02:22N 49°16' W 123°08'0 0.0
2016-Aug-02 01:31N 49°16' W 123°08'0 0.0
2016-Aug-02 00:31N 49°16' W 123°08'0 0.0
2016-Aug-01 23:31N 49°16' W 123°08'0 0.0
2016-Aug-01 22:31N 49°16' W 123°08'0 0.0
2016-Aug-01 21:29N 49°16' W 123°08'0 0.0
2016-Aug-01 20:31N 49°16' W 123°08'0 0.0
2016-Aug-01 19:31N 49°16' W 123°08'0 0.0
2016-Aug-01 18:28N 49°16' W 123°08'0 0.0
2016-Aug-01 17:25N 49°16' W 123°08'0 0.0
2016-Aug-01 16:28N 49°16' W 123°08'0 0.0
2016-Aug-01 15:31N 49°16' W 123°08'0 0.0
2016-Aug-01 14:31N 49°16' W 123°08'0 0.0
2016-Aug-01 13:22N 49°16' W 123°08'0 0.0
2016-Aug-01 12:31N 49°16' W 123°08'0 0.0
2016-Aug-01 11:31N 49°16' W 123°08'0 0.0
2016-Aug-01 10:31N 49°16' W 123°08'0 0.0
2016-Aug-01 09:28N 49°16' W 123°08'0 0.0
2016-Aug-01 08:31N 49°16' W 123°08'0 0.0
2016-Aug-01 07:31N 49°16' W 123°08'1 0.7
2016-Aug-01 05:33N 49°17' W 123°07'1 1.1
2016-Aug-01 04:33N 49°17' W 123°09'5 4.9
2016-Aug-01 03:33N 49°18' W 123°16'5 4.6
2016-Aug-01 02:33N 49°19' W 123°09'2 1.8
2016-Aug-01 01:31N 49°17' W 123°07'2 1.8
2016-Aug-01 00:33N 49°18' W 123°10'2 1.6
2016-Jul-31 23:28N 49°16' W 123°08'0 0.0
2016-Jul-31 22:28N 49°16' W 123°08'0 0.0
2016-Jul-31 21:31N 49°16' W 123°08'0 0.0
2016-Jul-31 20:31N 49°16' W 123°08'0 0.0
2016-Jul-31 19:31N 49°16' W 123°08'0 0.0
2016-Jul-31 18:31N 49°16' W 123°08'0 0.0
2016-Jul-31 17:31N 49°16' W 123°08'0 0.0
2016-Jul-31 16:31N 49°16' W 123°08'0 0.0
2016-Jul-31 15:31N 49°16' W 123°08'0 0.0
2016-Jul-31 14:31N 49°16' W 123°08'0 0.0
2016-Jul-31 13:32N 49°16' W 123°08'0 0.0
2016-Jul-31 12:31N 49°16' W 123°08'0 0.0
2016-Jul-31 11:31N 49°16' W 123°08'0 0.0
2016-Jul-31 10:31N 49°16' W 123°08'0 0.0
2016-Jul-31 09:31N 49°16' W 123°08'0 0.0
2016-Jul-31 08:31N 49°16' W 123°08'0 0.0
2016-Jul-31 07:31N 49°16' W 123°08'0 0.0
2016-Jul-31 06:28N 49°16' W 123°08'0 0.0
2016-Jul-31 05:31N 49°16' W 123°08'0 0.0
2016-Jul-31 04:31N 49°16' W 123°08'0 0.0
2016-Jul-31 03:31N 49°16' W 123°08'0 0.0
2016-Jul-31 02:31N 49°16' W 123°08'0 0.0
2016-Jul-31 01:28N 49°16' W 123°08'0 0.0
2016-Jul-31 00:31N 49°16' W 123°08'0 0.0
2016-Jul-30 22:28N 49°16' W 123°08'0 0.0
2016-Jul-30 21:31N 49°16' W 123°08'0 0.0
2016-Jul-30 20:31N 49°16' W 123°08'0 0.0
2016-Jul-30 19:31N 49°16' W 123°08'0 0.0
2016-Jul-30 18:25N 49°16' W 123°08'0 0.0
2016-Jul-30 17:31N 49°16' W 123°08'0 0.0
2016-Jul-30 16:28N 49°16' W 123°08'0 0.0
2016-Jul-30 15:28N 49°16' W 123°08'0 0.0
2016-Jul-30 14:31N 49°16' W 123°08'0 0.0
2016-Jul-30 13:28N 49°16' W 123°08'0 0.0
2016-Jul-30 12:31N 49°16' W 123°08'0 0.0
2016-Jul-30 11:28N 49°16' W 123°08'0 0.0
2016-Jul-30 10:22N 49°16' W 123°08'0 0.0
2016-Jul-30 09:31N 49°16' W 123°08'0 0.0
2016-Jul-30 08:31N 49°16' W 123°08'0 0.0
2016-Jul-30 07:31N 49°16' W 123°08'0 0.0
2016-Jul-30 06:28N 49°16' W 123°08'0 0.0
2016-Jul-30 05:28N 49°16' W 123°08'0 0.0
2016-Jul-30 04:31N 49°16' W 123°08'0 0.0
2016-Jul-30 03:31N 49°16' W 123°08'0 0.0
2016-Jul-30 02:31N 49°16' W 123°08'0 0.0
2016-Jul-30 01:31N 49°16' W 123°08'0 0.0
2016-Jul-30 00:31N 49°16' W 123°08'1 1.3
2016-Jul-29 23:33N 49°17' W 123°07'2 2.0
2016-Jul-29 22:33N 49°18' W 123°10'1 0.7
2016-Jul-29 21:33N 49°19' W 123°11'3 2.6
2016-Jul-29 20:31N 49°17' W 123°07'0 0.0
2016-Jul-29 19:31N 49°17' W 123°07'0 0.0
2016-Jul-29 18:31N 49°17' W 123°07'0 0.2
2016-Jul-29 17:33N 49°18' W 123°07'9 8.9
2016-Jul-29 16:33N 49°18' W 123°21'1010.3
2016-Jul-29 15:33N 49°15' W 123°36'1111.1
2016-Jul-29 14:33N 49°12' W 123°52'  
Track history (hours):
 
Tides and Currents Weather Stations Pressure Air Temp Water Temp Dewpoint Dewpoint Depression Visibility Wind Speed Wind Dir Waves Ship Positions

Polar Bear

Last reported at 2016-Aug-04 20:10 UTC. Time now 2016-Aug-28 12:13 UTC.
Position N 49°10' W 123°56'.
Warning: this ship's position is 23 days out of date.

Length 28 m; draft 2.3 m.

Type: Pleasure craft. MMSI: 512172000.

Date/timePositionNaut miles runAvg speedWind from/ knotsBaromVisibWave heightAir tempDewpointWater temp
2016-Aug-04 20:10N 49°10' W 123°56'4 6.5
2016-Aug-04 19:33N 49°12' W 123°51'10 9.7
2016-Aug-04 18:33N 49°15' W 123°36'9 9.5
2016-Aug-04 17:34N 49°16' W 123°22'9 9.1
2016-Aug-04 16:33N 49°16' W 123°08'0 0.0
2016-Aug-04 15:32N 49°16' W 123°08'0 0.0
2016-Aug-04 14:32N 49°16' W 123°08'0 0.0
2016-Aug-04 13:32N 49°16' W 123°08'0 0.0
2016-Aug-04 12:32N 49°16' W 123°08'0 0.0
2016-Aug-04 11:32N 49°16' W 123°08'0 0.0
2016-Aug-04 10:32N 49°16' W 123°08'0 0.0
2016-Aug-04 09:32N 49°16' W 123°08'0 0.0
2016-Aug-04 08:29N 49°16' W 123°08'0 0.0
2016-Aug-04 07:32N 49°16' W 123°08'0 0.0
2016-Aug-04 06:32N 49°16' W 123°08'8 4.2
2016-Aug-04 04:33N 49°19' W 122°56'9 7.0
2016-Aug-04 03:17N 49°28' W 122°53'1 0.7
2016-Aug-04 01:16N 49°26' W 122°52'7 9.7
2016-Aug-04 00:33N 49°20' W 122°55'9 9.2
2016-Aug-03 23:33N 49°19' W 123°10'3 2.5
2016-Aug-03 22:31N 49°16' W 123°08'0 0.0
2016-Aug-03 21:28N 49°16' W 123°08'0 0.0
2016-Aug-03 20:28N 49°16' W 123°08'0 0.0
2016-Aug-03 19:31N 49°16' W 123°08'0 0.0
2016-Aug-03 10:25N 49°16' W 123°08'0 0.0
2016-Aug-02 17:16N 49°16' W 123°08'0 0.0
2016-Aug-02 16:31N 49°16' W 123°08'0 0.0
2016-Aug-02 15:31N 49°16' W 123°08'0 0.0
2016-Aug-02 14:31N 49°16' W 123°08'0 0.0
2016-Aug-02 13:31N 49°16' W 123°08'0 0.0
2016-Aug-02 12:25N 49°16' W 123°08'0 0.0
2016-Aug-02 11:31N 49°16' W 123°08'0 0.0
2016-Aug-02 10:31N 49°16' W 123°08'0 0.0
2016-Aug-02 09:31N 49°16' W 123°08'0 0.0
2016-Aug-02 08:31N 49°16' W 123°08'0 0.0
2016-Aug-02 07:31N 49°16' W 123°08'0 0.0
2016-Aug-02 06:25N 49°16' W 123°08'0 0.0
2016-Aug-02 04:31N 49°16' W 123°08'0 0.0
2016-Aug-02 03:31N 49°16' W 123°08'0 0.0
2016-Aug-02 02:22N 49°16' W 123°08'0 0.0
2016-Aug-02 01:31N 49°16' W 123°08'0 0.0
2016-Aug-02 00:31N 49°16' W 123°08'0 0.0
2016-Aug-01 23:31N 49°16' W 123°08'0 0.0
2016-Aug-01 22:31N 49°16' W 123°08'0 0.0
2016-Aug-01 21:29N 49°16' W 123°08'0 0.0
2016-Aug-01 20:31N 49°16' W 123°08'0 0.0
2016-Aug-01 19:31N 49°16' W 123°08'0 0.0
2016-Aug-01 18:28N 49°16' W 123°08'0 0.0
2016-Aug-01 17:25N 49°16' W 123°08'0 0.0
2016-Aug-01 16:28N 49°16' W 123°08'0 0.0
2016-Aug-01 15:31N 49°16' W 123°08'0 0.0
2016-Aug-01 14:31N 49°16' W 123°08'0 0.0
2016-Aug-01 13:22N 49°16' W 123°08'0 0.0
2016-Aug-01 12:31N 49°16' W 123°08'0 0.0
2016-Aug-01 11:31N 49°16' W 123°08'0 0.0
2016-Aug-01 10:31N 49°16' W 123°08'0 0.0
2016-Aug-01 09:28N 49°16' W 123°08'0 0.0
2016-Aug-01 08:31N 49°16' W 123°08'0 0.0
2016-Aug-01 07:31N 49°16' W 123°08'1 0.7
2016-Aug-01 05:33N 49°17' W 123°07'1 1.1
2016-Aug-01 04:33N 49°17' W 123°09'5 4.9
2016-Aug-01 03:33N 49°18' W 123°16'5 4.6
2016-Aug-01 02:33N 49°19' W 123°09'2 1.8
2016-Aug-01 01:31N 49°17' W 123°07'2 1.8
2016-Aug-01 00:33N 49°18' W 123°10'2 1.6
2016-Jul-31 23:28N 49°16' W 123°08'0 0.0
2016-Jul-31 22:28N 49°16' W 123°08'0 0.0
2016-Jul-31 21:31N 49°16' W 123°08'0 0.0
2016-Jul-31 20:31N 49°16' W 123°08'0 0.0
2016-Jul-31 19:31N 49°16' W 123°08'0 0.0
2016-Jul-31 18:31N 49°16' W 123°08'0 0.0
2016-Jul-31 17:31N 49°16' W 123°08'0 0.0
2016-Jul-31 16:31N 49°16' W 123°08'0 0.0
2016-Jul-31 15:31N 49°16' W 123°08'0 0.0
2016-Jul-31 14:31N 49°16' W 123°08'0 0.0
2016-Jul-31 13:32N 49°16' W 123°08'0 0.0
2016-Jul-31 12:31N 49°16' W 123°08'0 0.0
2016-Jul-31 11:31N 49°16' W 123°08'0 0.0
2016-Jul-31 10:31N 49°16' W 123°08'0 0.0
2016-Jul-31 09:31N 49°16' W 123°08'0 0.0
2016-Jul-31 08:31N 49°16' W 123°08'0 0.0
2016-Jul-31 07:31N 49°16' W 123°08'0 0.0
2016-Jul-31 06:28N 49°16' W 123°08'0 0.0
2016-Jul-31 05:31N 49°16' W 123°08'0 0.0
2016-Jul-31 04:31N 49°16' W 123°08'0 0.0
2016-Jul-31 03:31N 49°16' W 123°08'0 0.0
2016-Jul-31 02:31N 49°16' W 123°08'0 0.0
2016-Jul-31 01:28N 49°16' W 123°08'0 0.0
2016-Jul-31 00:31N 49°16' W 123°08'0 0.0
2016-Jul-30 22:28N 49°16' W 123°08'0 0.0
2016-Jul-30 21:31N 49°16' W 123°08'0 0.0
2016-Jul-30 20:31N 49°16' W 123°08'0 0.0
2016-Jul-30 19:31N 49°16' W 123°08'0 0.0
2016-Jul-30 18:25N 49°16' W 123°08'0 0.0
2016-Jul-30 17:31N 49°16' W 123°08'0 0.0
2016-Jul-30 16:28N 49°16' W 123°08'0 0.0
2016-Jul-30 15:28N 49°16' W 123°08'0 0.0
2016-Jul-30 14:31N 49°16' W 123°08'0 0.0
2016-Jul-30 13:28N 49°16' W 123°08'0 0.0
2016-Jul-30 12:31N 49°16' W 123°08'0 0.0
2016-Jul-30 11:28N 49°16' W 123°08'0 0.0
2016-Jul-30 10:22N 49°16' W 123°08'0 0.0
2016-Jul-30 09:31N 49°16' W 123°08'0 0.0
2016-Jul-30 08:31N 49°16' W 123°08'0 0.0
2016-Jul-30 07:31N 49°16' W 123°08'0 0.0
2016-Jul-30 06:28N 49°16' W 123°08'0 0.0
2016-Jul-30 05:28N 49°16' W 123°08'0 0.0
2016-Jul-30 04:31N 49°16' W 123°08'0 0.0
2016-Jul-30 03:31N 49°16' W 123°08'0 0.0
2016-Jul-30 02:31N 49°16' W 123°08'0 0.0
2016-Jul-30 01:31N 49°16' W 123°08'0 0.0
2016-Jul-30 00:31N 49°16' W 123°08'1 1.3
2016-Jul-29 23:33N 49°17' W 123°07'2 2.0
2016-Jul-29 22:33N 49°18' W 123°10'1 0.7
2016-Jul-29 21:33N 49°19' W 123°11'3 2.6
2016-Jul-29 20:31N 49°17' W 123°07'0 0.0
2016-Jul-29 19:31N 49°17' W 123°07'0 0.0
2016-Jul-29 18:31N 49°17' W 123°07'0 0.2
2016-Jul-29 17:33N 49°18' W 123°07'9 8.9
2016-Jul-29 16:33N 49°18' W 123°21'1010.3
2016-Jul-29 15:33N 49°15' W 123°36'1111.1
2016-Jul-29 14:33N 49°12' W 123°52'  

Dump ship's entire track history